createdAt,value
2023-10-23T00:02:14.244Z,87.62
2023-10-23T00:04:42.806Z,87.79
2023-10-23T00:07:11.472Z,87.67
2023-10-23T00:09:39.764Z,87.76
2023-10-23T00:12:09.986Z,87.75
2023-10-23T00:14:38.355Z,87.75
2023-10-23T00:17:06.703Z,87.67
2023-10-23T00:19:35.042Z,87.57
2023-10-23T00:22:03.345Z,87.72
2023-10-23T00:24:31.565Z,87.59
2023-10-23T00:26:59.776Z,87.56
2023-10-23T00:29:27.942Z,87.64
2023-10-23T00:31:56.025Z,87.65
2023-10-23T00:34:24.145Z,87.52
2023-10-23T00:36:52.261Z,87.52
2023-10-23T00:39:20.442Z,87.51
2023-10-23T00:41:48.575Z,87.46
2023-10-23T00:44:16.836Z,87.50
2023-10-23T00:46:45.474Z,87.42
2023-10-23T00:49:13.772Z,87.48
2023-10-23T00:51:42.096Z,87.41
2023-10-23T00:54:10.727Z,87.48
2023-10-23T00:56:39.085Z,87.34
2023-10-23T00:59:08.746Z,87.25
2023-10-23T01:01:37.533Z,87.24
2023-10-23T01:04:07.008Z,87.42
2023-10-23T01:06:35.238Z,87.22
2023-10-23T01:09:04.445Z,87.31
2023-10-23T01:11:32.727Z,87.31
2023-10-23T01:14:00.816Z,87.42
2023-10-23T01:16:29.187Z,87.50
2023-10-23T01:18:57.654Z,87.48
2023-10-23T01:21:26.284Z,87.48
2023-10-23T01:23:55.376Z,87.49
2023-10-23T01:26:24.246Z,87.43
2023-10-23T01:28:52.405Z,87.49
2023-10-23T01:31:20.533Z,87.52
2023-10-23T01:33:48.840Z,87.50
2023-10-23T01:36:17.006Z,87.52
2023-10-23T01:38:45.218Z,87.54
2023-10-23T01:41:13.286Z,87.45
2023-10-23T01:43:41.517Z,87.56
2023-10-23T01:46:09.806Z,87.45
2023-10-23T01:48:38.291Z,87.39
2023-10-23T01:51:06.475Z,87.40
2023-10-23T01:53:34.590Z,87.39
2023-10-23T01:56:08.698Z,87.46
2023-10-23T01:58:36.918Z,87.48
2023-10-23T02:01:05.206Z,87.46
2023-10-23T02:03:33.667Z,87.46
2023-10-23T02:06:01.912Z,87.47
2023-10-23T02:08:30.066Z,87.41
2023-10-23T02:10:58.418Z,87.44
2023-10-23T02:13:26.580Z,87.40
2023-10-23T02:15:54.770Z,87.37
2023-10-23T02:18:23.079Z,87.43
2023-10-23T02:20:51.877Z,87.38
2023-10-23T02:23:20.012Z,87.43
2023-10-23T02:25:48.249Z,87.35
2023-10-23T02:28:17.585Z,87.34
2023-10-23T02:30:45.922Z,87.29
2023-10-23T02:33:14.141Z,87.26
2023-10-23T02:35:42.409Z,87.21
2023-10-23T02:38:10.889Z,87.14
2023-10-23T02:40:39.084Z,87.02
2023-10-23T02:43:07.260Z,87.03
2023-10-23T02:45:35.571Z,86.97
2023-10-23T02:48:03.895Z,87.01
2023-10-23T02:50:32.354Z,86.92
2023-10-23T02:53:00.533Z,86.74
2023-10-23T02:55:28.756Z,86.67
2023-10-23T02:57:56.997Z,86.81
2023-10-23T03:00:25.376Z,86.66
2023-10-23T03:02:53.624Z,86.70
2023-10-23T03:05:22.130Z,86.59
2023-10-23T03:07:51.917Z,86.60
2023-10-23T03:10:21.094Z,86.47
2023-10-23T03:12:49.443Z,86.50
2023-10-23T03:15:17.730Z,86.39
2023-10-23T03:17:45.992Z,86.42
2023-10-23T03:20:14.559Z,86.46
2023-10-23T03:22:42.920Z,86.38
2023-10-23T03:25:11.839Z,86.23
2023-10-23T03:27:40.590Z,86.17
2023-10-23T03:30:09.392Z,85.98
2023-10-23T03:32:37.603Z,85.84
2023-10-23T03:35:06.179Z,85.88
2023-10-23T03:37:34.412Z,85.94
2023-10-23T03:40:02.657Z,85.85
2023-10-23T03:42:30.876Z,85.87
2023-10-23T03:44:59.123Z,85.84
2023-10-23T03:47:27.288Z,85.74
2023-10-23T03:49:55.387Z,85.72
2023-10-23T03:52:24.069Z,85.81
2023-10-23T03:54:52.205Z,85.85
2023-10-23T03:57:20.469Z,85.70
2023-10-23T03:59:48.635Z,85.82
2023-10-23T04:02:16.752Z,85.86
2023-10-23T04:04:44.964Z,85.91
2023-10-23T04:07:13.245Z,86.00
2023-10-23T04:09:42.180Z,85.79
2023-10-23T04:12:11.251Z,85.84
2023-10-23T04:14:39.398Z,85.90
2023-10-23T04:17:07.544Z,85.83
2023-10-23T04:19:35.810Z,85.80
2023-10-23T04:22:04.242Z,85.73
2023-10-23T04:24:32.598Z,85.73
2023-10-23T04:27:00.843Z,85.73
2023-10-23T04:29:28.963Z,85.82
2023-10-23T04:31:57.188Z,85.78
2023-10-23T04:34:25.488Z,85.77
2023-10-23T04:36:53.771Z,85.62
2023-10-23T04:39:21.959Z,85.72
2023-10-23T04:41:50.161Z,85.75
2023-10-23T04:44:20.574Z,85.78
2023-10-23T04:46:49.344Z,85.75
2023-10-23T04:49:17.547Z,85.86
2023-10-23T04:51:45.814Z,85.90
2023-10-23T04:54:13.967Z,86.00
2023-10-23T04:56:42.733Z,85.91
2023-10-23T04:59:11.228Z,85.99
2023-10-23T05:01:39.884Z,86.00
2023-10-23T05:04:08.229Z,85.98
2023-10-23T05:06:39.788Z,86.09
2023-10-23T05:09:08.158Z,86.02
2023-10-23T05:11:36.409Z,86.10
2023-10-23T05:14:05.243Z,86.08
2023-10-23T05:16:33.458Z,86.10
2023-10-23T05:19:01.632Z,86.17
2023-10-23T05:21:29.842Z,86.38
2023-10-23T05:23:57.918Z,86.18
2023-10-23T05:26:26.406Z,86.43
2023-10-23T05:28:55.644Z,86.44
2023-10-23T05:31:23.820Z,86.36
2023-10-23T05:33:53.255Z,86.58
2023-10-23T05:36:21.570Z,86.49
2023-10-23T05:38:49.673Z,86.59
2023-10-23T05:41:17.803Z,86.82
2023-10-23T05:43:45.886Z,86.78
2023-10-23T05:46:14.174Z,86.80
2023-10-23T05:48:42.574Z,86.92
2023-10-23T05:51:10.769Z,86.75
2023-10-23T05:53:38.969Z,86.86
2023-10-23T05:56:07.948Z,86.73
2023-10-23T05:58:37.027Z,86.79
2023-10-23T06:01:09.905Z,86.78
2023-10-23T06:03:38.528Z,86.78
2023-10-23T06:06:07.434Z,86.61
2023-10-23T06:08:35.866Z,86.67
2023-10-23T06:11:04.323Z,86.60
2023-10-23T06:13:32.705Z,86.46
2023-10-23T06:16:04.397Z,86.49
2023-10-23T06:18:33.774Z,86.40
2023-10-23T06:21:06.662Z,86.34
2023-10-23T06:23:36.862Z,86.27
2023-10-23T06:26:08.960Z,86.20
2023-10-23T06:28:37.960Z,86.19
2023-10-23T06:31:10.947Z,86.01
2023-10-23T06:33:45.838Z,86.06
2023-10-23T06:36:14.021Z,85.93
2023-10-23T06:38:42.195Z,85.85
2023-10-23T06:41:10.384Z,85.80
2023-10-23T06:43:38.786Z,85.72
2023-10-23T06:46:07.644Z,85.64
2023-10-23T06:48:36.189Z,85.50
2023-10-23T06:51:05.256Z,85.47
2023-10-23T06:53:33.521Z,85.45
2023-10-23T06:56:01.698Z,85.22
2023-10-23T06:58:29.832Z,85.06
2023-10-23T07:00:58.246Z,85.04
2023-10-23T07:03:26.516Z,85.10
2023-10-23T07:05:54.927Z,85.06
2023-10-23T07:08:23.173Z,84.90
2023-10-23T07:10:53.180Z,84.97
2023-10-23T07:13:23.086Z,85.06
2023-10-23T07:15:52.366Z,84.83
2023-10-23T07:18:21.042Z,84.92
2023-10-23T07:20:54.742Z,84.89
2023-10-23T07:23:25.708Z,84.76
2023-10-23T07:26:12.377Z,84.55
2023-10-23T07:28:40.795Z,84.54
2023-10-23T07:31:10.750Z,84.45
2023-10-23T07:33:39.372Z,84.34
2023-10-23T07:36:10.351Z,84.17
2023-10-23T07:38:45.958Z,83.96
2023-10-23T07:41:14.480Z,83.85
2023-10-23T07:43:44.165Z,83.96
2023-10-23T07:46:17.444Z,84.02
2023-10-23T07:48:47.341Z,83.93
2023-10-23T07:51:15.999Z,83.87
2023-10-23T07:53:44.273Z,83.51
2023-10-23T07:56:15.910Z,83.34
2023-10-23T07:58:44.201Z,83.05
2023-10-23T08:01:13.943Z,82.50
2023-10-23T08:03:42.563Z,81.79
2023-10-23T08:06:12.369Z,81.16
2023-10-23T08:08:42.132Z,80.30
2023-10-23T08:11:13.351Z,80.07
2023-10-23T08:13:42.193Z,79.04
2023-10-23T08:16:10.610Z,78.68
2023-10-23T08:18:41.559Z,78.31
2023-10-23T08:21:18.251Z,77.37
2023-10-23T08:23:48.083Z,75.91
2023-10-23T08:26:16.787Z,74.77
2023-10-23T08:31:29.449Z,73.76
2023-10-23T08:34:03.415Z,73.16
2023-10-23T08:36:31.609Z,71.85
2023-10-23T08:39:00.772Z,70.78
2023-10-23T08:41:29.793Z,69.60
2023-10-23T08:43:58.014Z,67.54
2023-10-23T08:46:33.238Z,67.36
2023-10-23T08:49:03.211Z,67.12
2023-10-23T08:51:32.717Z,66.83
2023-10-23T08:54:12.429Z,65.89
2023-10-23T08:56:43.953Z,63.26
2023-10-23T08:59:15.423Z,62.22
2023-10-23T09:01:43.986Z,61.46
2023-10-23T09:04:13.251Z,61.46
2023-10-23T09:06:43.779Z,60.97
2023-10-23T09:09:13.043Z,60.19
2023-10-23T09:11:47.481Z,59.63
2023-10-23T09:14:44.293Z,59.64
2023-10-23T09:17:12.549Z,57.86
2023-10-23T09:19:42.652Z,57.72
2023-10-23T09:22:14.000Z,57.20
2023-10-23T09:24:42.780Z,56.95
2023-10-23T09:27:10.904Z,56.13
2023-10-23T09:29:39.270Z,52.72
2023-10-23T09:32:07.803Z,52.52
2023-10-23T09:34:42.918Z,52.05
2023-10-23T09:37:11.318Z,52.01
2023-10-23T09:39:41.363Z,50.39
2023-10-23T09:42:10.298Z,50.38
2023-10-23T09:44:40.180Z,50.50
2023-10-23T09:47:10.620Z,50.53
2023-10-23T09:49:41.930Z,49.93
2023-10-23T09:52:12.160Z,48.30
2023-10-23T09:54:42.814Z,48.11
2023-10-23T09:57:12.889Z,48.34
2023-10-23T09:59:50.054Z,48.15
2023-10-23T10:02:20.561Z,47.72
2023-10-23T10:04:54.159Z,47.72
2023-10-23T10:07:31.526Z,47.71
2023-10-23T10:10:00.463Z,46.97
2023-10-23T10:12:29.986Z,47.31
2023-10-23T10:14:59.215Z,48.06
2023-10-23T10:17:28.987Z,47.74
2023-10-23T10:19:59.949Z,46.67
2023-10-23T10:22:29.682Z,46.45
2023-10-23T10:24:58.683Z,47.31
2023-10-23T10:27:27.564Z,47.56
2023-10-23T10:29:55.983Z,46.94
2023-10-23T10:32:27.233Z,46.27
2023-10-23T10:34:58.076Z,46.46
2023-10-23T10:37:29.573Z,46.80
2023-10-23T10:39:57.870Z,47.03
2023-10-23T10:42:27.399Z,47.54
2023-10-23T10:45:16.520Z,48.18
2023-10-23T10:47:52.866Z,47.73
2023-10-23T10:50:38.217Z,47.56
2023-10-23T10:53:07.793Z,47.80
2023-10-23T10:55:38.072Z,48.28
2023-10-23T10:58:07.903Z,47.67
2023-10-23T11:00:37.044Z,46.85
2023-10-23T11:03:07.048Z,46.60
2023-10-23T11:05:37.821Z,45.88
2023-10-23T11:08:06.346Z,46.12
2023-10-23T11:10:34.751Z,45.98
2023-10-23T11:13:03.493Z,44.54
2023-10-23T11:15:31.828Z,44.10
2023-10-23T11:18:00.043Z,43.92
2023-10-23T11:20:32.514Z,43.33
2023-10-23T11:23:00.991Z,42.81
2023-10-23T11:25:29.520Z,43.16
2023-10-23T11:27:57.662Z,41.62
2023-10-23T11:30:29.209Z,42.56
2023-10-23T11:32:58.194Z,42.66
2023-10-23T11:35:33.093Z,41.50
2023-10-23T11:38:03.702Z,42.06
2023-10-23T11:40:36.225Z,40.74
2023-10-23T11:43:05.057Z,40.60
2023-10-23T11:45:33.817Z,40.95
2023-10-23T11:48:02.164Z,41.58
2023-10-23T11:50:31.411Z,41.58
2023-10-23T11:52:59.655Z,40.44
2023-10-23T11:55:27.967Z,40.95
2023-10-23T11:57:56.930Z,40.64
2023-10-23T12:00:25.739Z,40.72
2023-10-23T12:02:54.748Z,40.81
2023-10-23T12:05:24.536Z,39.97
2023-10-23T12:07:54.822Z,39.85
2023-10-23T12:10:27.951Z,39.66
2023-10-23T12:12:57.088Z,39.49
2023-10-23T12:15:25.756Z,39.34
2023-10-23T12:17:54.245Z,39.34
2023-10-23T12:20:23.568Z,39.13
2023-10-23T12:22:53.371Z,38.51
2023-10-23T12:25:21.808Z,38.53
2023-10-23T12:27:50.122Z,38.25
2023-10-23T12:30:24.128Z,39.14
2023-10-23T12:33:15.297Z,39.09
2023-10-23T12:35:45.864Z,39.30
2023-10-23T12:38:14.117Z,38.63
2023-10-23T12:40:44.332Z,37.20
2023-10-23T12:43:12.938Z,36.27
2023-10-23T12:45:43.824Z,35.68
2023-10-23T12:48:12.109Z,34.94
2023-10-23T12:50:40.441Z,33.95
2023-10-23T12:53:12.301Z,34.44
2023-10-23T12:55:41.503Z,34.07
2023-10-23T12:58:09.755Z,32.96
2023-10-23T13:00:37.964Z,33.07
2023-10-23T13:03:06.186Z,33.19
2023-10-23T13:05:34.901Z,33.04
2023-10-23T13:08:03.131Z,32.59
2023-10-23T13:10:31.310Z,32.39
2023-10-23T13:12:59.452Z,31.91
2023-10-23T13:15:28.144Z,31.57
2023-10-23T13:17:57.571Z,31.66
2023-10-23T13:21:29.057Z,32.44
2023-10-23T13:23:14.070Z,31.06
2023-10-23T13:25:42.430Z,29.89
2023-10-23T13:28:11.144Z,30.24
2023-10-23T13:30:39.435Z,30.71
2023-10-23T13:33:08.143Z,30.58
2023-10-23T13:35:37.364Z,30.85
2023-10-23T13:38:05.549Z,31.40
2023-10-23T13:40:34.682Z,31.10
2023-10-23T13:43:03.046Z,31.49
2023-10-23T13:45:31.208Z,30.49
2023-10-23T13:47:59.367Z,30.55
2023-10-23T13:50:27.610Z,30.46
2023-10-23T13:52:55.799Z,31.24
2023-10-23T13:55:23.971Z,31.75
2023-10-23T13:57:52.431Z,32.75
2023-10-23T14:00:20.779Z,33.68
2023-10-23T14:02:48.961Z,34.80
2023-10-23T14:05:17.134Z,35.31
2023-10-23T14:07:47.197Z,35.90
2023-10-23T14:10:21.524Z,36.60
2023-10-23T14:12:52.868Z,37.41
2023-10-23T14:15:22.079Z,38.22
2023-10-23T14:17:50.491Z,38.82
2023-10-23T14:20:19.015Z,39.62
2023-10-23T14:22:47.170Z,39.94
2023-10-23T14:25:15.411Z,40.12
2023-10-23T14:27:43.608Z,39.99
2023-10-23T14:30:12.181Z,40.32
2023-10-23T14:32:40.473Z,40.33
2023-10-23T14:35:09.382Z,40.57
2023-10-23T14:37:37.825Z,40.91
2023-10-23T14:40:07.216Z,40.87
2023-10-23T14:42:35.356Z,41.09
2023-10-23T14:45:05.656Z,41.37
2023-10-23T14:47:33.954Z,41.51
2023-10-23T14:50:06.440Z,42.22
2023-10-23T14:52:36.452Z,43.27
2023-10-23T14:55:06.310Z,44.49
2023-10-23T14:57:34.527Z,45.62
2023-10-23T15:00:02.850Z,46.49
2023-10-23T15:02:31.126Z,47.63
2023-10-23T15:05:00.483Z,48.46
2023-10-23T15:07:28.703Z,49.41
2023-10-23T15:09:56.919Z,50.07
2023-10-23T15:12:27.369Z,50.78
2023-10-23T15:14:57.143Z,51.51
2023-10-23T15:17:25.520Z,52.02
2023-10-23T15:19:58.621Z,52.68
2023-10-23T15:22:27.203Z,53.22
2023-10-23T15:24:55.407Z,53.53
2023-10-23T15:27:23.656Z,54.23
2023-10-23T15:29:51.833Z,54.79
2023-10-23T15:32:19.994Z,55.39
2023-10-23T15:34:48.153Z,55.78
2023-10-23T15:37:17.750Z,56.01
2023-10-23T15:39:47.185Z,56.69
2023-10-23T15:42:15.364Z,56.87
2023-10-23T15:44:44.822Z,57.00
2023-10-23T15:47:13.774Z,57.53
2023-10-23T15:49:42.238Z,57.83
2023-10-23T15:52:10.513Z,57.93
2023-10-23T15:54:39.129Z,58.19
2023-10-23T15:57:07.439Z,58.67
2023-10-23T15:59:35.592Z,59.17
2023-10-23T16:02:04.034Z,59.54
2023-10-23T16:04:32.284Z,59.89
2023-10-23T16:07:00.592Z,60.05
2023-10-23T16:09:29.239Z,60.29
2023-10-23T16:12:09.844Z,60.59
2023-10-23T16:14:49.953Z,60.83
2023-10-23T16:17:24.854Z,61.50
2023-10-23T16:19:53.247Z,61.79
2023-10-23T16:22:21.357Z,62.22
2023-10-23T16:24:49.642Z,62.56
2023-10-23T16:27:18.717Z,62.93
2023-10-23T16:29:48.929Z,63.34
2023-10-23T16:32:18.741Z,63.93
2023-10-23T16:34:47.050Z,64.33
2023-10-23T16:37:15.346Z,64.71
2023-10-23T16:39:43.651Z,65.05
2023-10-23T16:42:11.785Z,65.33
2023-10-23T16:44:52.789Z,65.57
2023-10-23T16:47:24.699Z,66.00
2023-10-23T16:49:53.772Z,66.40
2023-10-23T16:52:22.116Z,66.89
2023-10-23T16:54:50.937Z,67.00
2023-10-23T16:57:19.812Z,67.38
2023-10-23T16:59:48.687Z,67.67
2023-10-23T17:02:16.965Z,67.79
2023-10-23T17:04:46.010Z,68.05
2023-10-23T17:07:15.174Z,68.27
2023-10-23T17:09:43.709Z,68.50
2023-10-23T17:12:12.007Z,68.30
2023-10-23T17:14:40.649Z,68.12
2023-10-23T17:17:09.969Z,68.16
2023-10-23T17:19:40.191Z,68.29
2023-10-23T17:22:09.579Z,68.39
2023-10-23T17:24:37.849Z,68.58
2023-10-23T17:27:06.012Z,68.69
2023-10-23T17:29:34.357Z,68.96
2023-10-23T17:32:04.049Z,68.83
2023-10-23T17:34:32.409Z,69.17
2023-10-23T17:37:00.617Z,69.14
2023-10-23T17:39:28.766Z,69.33
2023-10-23T17:41:56.969Z,69.39
2023-10-23T17:44:25.168Z,69.37
2023-10-23T17:46:55.069Z,69.36
2023-10-23T17:49:23.583Z,69.57
2023-10-23T17:51:52.020Z,69.59
2023-10-23T17:54:20.293Z,69.78
2023-10-23T17:56:48.425Z,69.90
2023-10-23T17:59:16.609Z,69.88
2023-10-23T18:02:03.811Z,70.06
2023-10-23T18:04:52.927Z,69.98
2023-10-23T18:07:21.630Z,70.32
2023-10-23T18:10:08.789Z,70.62
2023-10-23T18:12:58.589Z,70.75
2023-10-23T18:15:47.270Z,70.91
2023-10-23T18:18:15.964Z,71.11
2023-10-23T18:20:44.302Z,71.32
2023-10-23T18:23:12.463Z,71.22
2023-10-23T18:25:40.679Z,71.18
2023-10-23T18:28:08.900Z,71.41
2023-10-23T18:30:37.143Z,71.56
2023-10-23T18:33:05.415Z,71.65
2023-10-23T18:35:37.027Z,71.74
2023-10-23T18:38:05.705Z,71.71
2023-10-23T18:40:36.086Z,71.86
2023-10-23T18:43:05.033Z,71.86
2023-10-23T18:45:33.513Z,72.14
2023-10-23T18:48:03.251Z,72.28
2023-10-23T18:50:31.646Z,72.40
2023-10-23T18:53:01.712Z,72.40
2023-10-23T18:55:29.903Z,72.61
2023-10-23T18:57:58.162Z,72.63
2023-10-23T19:00:26.497Z,72.70
2023-10-23T19:02:54.894Z,72.77
2023-10-23T19:05:23.395Z,72.69
2023-10-23T19:07:51.584Z,72.83
2023-10-23T19:10:19.923Z,73.02
2023-10-23T19:12:48.186Z,73.03
2023-10-23T19:15:16.316Z,73.00
2023-10-23T19:17:45.240Z,73.19
2023-10-23T19:20:14.244Z,73.22
2023-10-23T19:22:43.070Z,73.24
2023-10-23T19:25:11.521Z,73.18
2023-10-23T19:27:40.640Z,73.39
2023-10-23T19:30:13.593Z,73.32
2023-10-23T19:32:42.546Z,73.50
2023-10-23T19:35:13.035Z,73.69
2023-10-23T19:37:42.058Z,73.83
2023-10-23T19:40:11.340Z,73.60
2023-10-23T19:42:44.012Z,73.82
2023-10-23T19:45:12.593Z,73.84
2023-10-23T19:47:41.148Z,73.81
2023-10-23T19:50:10.411Z,74.00
2023-10-23T19:52:39.416Z,74.09
2023-10-23T19:55:43.921Z,74.10
2023-10-23T19:57:57.805Z,74.25
2023-10-23T20:00:26.015Z,74.25
2023-10-23T20:02:55.786Z,74.41
2023-10-23T20:05:28.561Z,74.57
2023-10-23T20:07:59.764Z,74.45
2023-10-23T20:10:31.311Z,74.48
2023-10-23T20:13:00.306Z,74.58
2023-10-23T20:15:30.506Z,74.45
2023-10-23T20:17:59.665Z,74.58
2023-10-23T20:20:28.600Z,74.66
2023-10-23T20:22:56.837Z,74.73
2023-10-23T20:25:25.643Z,74.84
2023-10-23T20:27:53.885Z,74.77
2023-10-23T20:30:23.692Z,74.81
2023-10-23T20:32:51.989Z,74.78
2023-10-23T20:35:20.433Z,74.88
2023-10-23T20:37:48.646Z,74.92
2023-10-23T20:40:16.935Z,75.04
2023-10-23T20:42:45.096Z,75.00
2023-10-23T20:45:14.427Z,74.93
2023-10-23T20:47:42.618Z,75.16
2023-10-23T20:50:11.132Z,75.00
2023-10-23T20:52:39.658Z,75.11
2023-10-23T20:55:08.275Z,75.27
2023-10-23T20:57:36.528Z,75.12
2023-10-23T21:00:07.605Z,75.16
2023-10-23T21:02:37.634Z,75.15
2023-10-23T21:05:06.701Z,75.26
2023-10-23T21:07:35.632Z,75.37
2023-10-23T21:10:04.168Z,75.33
2023-10-23T21:12:32.331Z,75.59
2023-10-23T21:15:00.571Z,75.73
2023-10-23T21:17:28.836Z,75.81
2023-10-23T21:19:57.232Z,75.73
2023-10-23T21:22:25.402Z,75.85
2023-10-23T21:24:53.865Z,75.77
2023-10-23T21:27:22.545Z,75.91
2023-10-23T21:29:50.866Z,76.01
2023-10-23T21:32:19.151Z,76.16
2023-10-23T21:34:47.291Z,76.30
2023-10-23T21:37:15.431Z,76.25
2023-10-23T21:39:43.577Z,76.31
2023-10-23T21:42:11.748Z,76.36
2023-10-23T21:44:40.147Z,76.42
2023-10-23T21:47:08.593Z,76.41
2023-10-23T21:49:37.586Z,76.44
2023-10-23T21:52:06.602Z,76.48
2023-10-23T21:54:35.055Z,76.60
2023-10-23T21:57:23.025Z,76.54
2023-10-23T21:59:52.133Z,76.64
2023-10-23T22:02:20.974Z,76.61
2023-10-23T22:04:49.491Z,76.76
2023-10-23T22:07:17.894Z,76.72
2023-10-23T22:09:46.199Z,76.58
2023-10-23T22:12:14.721Z,76.54
2023-10-23T22:14:43.067Z,76.56
2023-10-23T22:17:11.352Z,76.50
2023-10-23T22:19:39.663Z,76.55
2023-10-23T22:22:08.007Z,76.43
2023-10-23T22:24:36.138Z,76.50
2023-10-23T22:27:04.469Z,76.54
2023-10-23T22:29:32.518Z,76.36
2023-10-23T22:32:00.776Z,76.32
2023-10-23T22:34:29.115Z,76.36
2023-10-23T22:37:46.386Z,76.41
2023-10-23T22:39:45.451Z,76.40
2023-10-23T22:42:13.728Z,76.58
2023-10-23T22:44:42.483Z,76.52
2023-10-23T22:47:10.862Z,76.60
2023-10-23T22:49:39.643Z,76.65
2023-10-23T22:52:08.557Z,76.65
2023-10-23T22:54:37.100Z,76.57
2023-10-23T22:57:07.516Z,76.45
2023-10-23T22:59:35.931Z,76.54
2023-10-23T23:02:04.447Z,76.67
2023-10-23T23:04:33.259Z,76.92
2023-10-23T23:07:03.417Z,77.12
2023-10-23T23:09:32.273Z,77.33
2023-10-23T23:12:00.722Z,77.36
2023-10-23T23:14:29.402Z,77.35
2023-10-23T23:17:03.873Z,77.41
2023-10-23T23:19:33.030Z,77.35
2023-10-23T23:22:08.475Z,77.22
2023-10-23T23:24:38.415Z,77.32
2023-10-23T23:27:06.769Z,77.38
2023-10-23T23:29:37.461Z,77.33
2023-10-23T23:32:05.741Z,77.26
2023-10-23T23:34:33.946Z,77.18
2023-10-23T23:37:02.144Z,77.31
2023-10-23T23:39:30.248Z,77.22
2023-10-23T23:41:58.344Z,77.20
2023-10-23T23:44:27.077Z,77.28
2023-10-23T23:46:57.619Z,77.20
2023-10-23T23:49:26.030Z,77.11
2023-10-23T23:51:54.402Z,77.12
2023-10-23T23:54:22.509Z,77.00
2023-10-23T23:56:51.631Z,76.97
2023-10-23T23:59:19.786Z,76.95
